MSC Claudia — 3FZA6 — position and weather

sailwx.info

Track history (hours):
 
Tides and Currents Weather Stations Pressure Air Temp Water Temp Dewpoint Dewpoint Depression Visibility Wind Speed Wind Dir Waves Ship Positions

MSC Claudia

Last reported at 2016-Feb-07 04:14 UTC. Time now 2016-Apr-30 08:58 UTC.
Position N 34°39' E 128°49'.
Warning: this ship's position is months out of date.

Length 292 m; draft 9.4 m.

Type: Ship (hazmat cat A). MMSI: 370606000.

Date/timePositionNaut miles runAvg speedWind from/ knotsBaromVisibWave heightAir tempDewpointWater temp
2016-Feb-07 04:14N 34°39' E 128°49'23 8.6
2016-Feb-07 01:34N 34°20' E 128°33'61 7.6
2016-Feb-06 17:33N 33°29' E 127°54'13 6.5
2016-Feb-06 15:31N 33°17' E 127°47'6 5.9
2016-Feb-06 14:33N 33°12' E 127°43'6 6.1
2016-Feb-06 13:33N 33°06' E 127°40'6 6.0
2016-Feb-06 12:33N 33°01' E 127°38'6 5.9
2016-Feb-06 11:33N 32°55' E 127°35'6 6.2
2016-Feb-06 10:33N 32°50' E 127°31'  
2016-Feb-02 09:08N 22°17' E 114°06'6 0.3
2016-Feb-01 13:06N 22°21' E 114°02'510.0
2016-Feb-01 12:33N 22°17' E 114°06'12 9.8
2016-Feb-01 11:21N 22°08' E 114°15'1111.4
2016-Feb-01 10:25N 22°08' E 114°26'  
2016-Jan-29 05:31N 01°14' E 103°57'9 8.5
2016-Jan-29 04:28N 01°13' E 103°48'4 4.4
2016-Jan-29 03:33N 01°16' E 103°46'0 0.0
2016-Jan-29 02:33N 01°16' E 103°46'0 0.0
2016-Jan-29 01:33N 01°16' E 103°46'0 0.0
2016-Jan-29 00:33N 01°16' E 103°46'0 0.0
2016-Jan-28 23:33N 01°16' E 103°46'0 0.0
2016-Jan-28 22:33N 01°16' E 103°46'0 0.0
2016-Jan-28 21:33N 01°16' E 103°46'0 0.0
2016-Jan-28 20:33N 01°16' E 103°46'0 0.0
2016-Jan-28 19:33N 01°16' E 103°46'0 0.1
2016-Jan-28 18:33N 01°16' E 103°46'0 0.1
2016-Jan-28 17:33N 01°16' E 103°46'0 0.0
2016-Jan-28 16:33N 01°16' E 103°46'0 0.0
2016-Jan-28 15:33N 01°16' E 103°46'0 0.1
2016-Jan-28 14:33N 01°16' E 103°46'0 0.1
2016-Jan-28 13:33N 01°16' E 103°46'0 0.0
2016-Jan-28 12:33N 01°16' E 103°46'0 0.0
2016-Jan-28 09:33N 01°16' E 103°46'0 0.0
2016-Jan-28 08:33N 01°16' E 103°46'0 0.0
2016-Jan-28 07:33N 01°16' E 103°46'3 2.8
2016-Jan-28 06:33N 01°14' E 103°47'9 8.5
2016-Jan-28 05:33N 01°14' E 103°56'8 8.0
2016-Jan-28 04:33N 01°16' E 104°04'  
Track history (hours):
 
Tides and Currents Weather Stations Pressure Air Temp Water Temp Dewpoint Dewpoint Depression Visibility Wind Speed Wind Dir Waves Ship Positions

MSC Claudia

Last reported at 2016-Feb-07 04:14 UTC. Time now 2016-Apr-30 08:58 UTC.
Position N 34°39' E 128°49'.
Warning: this ship's position is months out of date.

Length 292 m; draft 9.4 m.

Type: Ship (hazmat cat A). MMSI: 370606000.

Date/timePositionNaut miles runAvg speedWind from/ knotsBaromVisibWave heightAir tempDewpointWater temp
2016-Feb-07 04:14N 34°39' E 128°49'23 8.6
2016-Feb-07 01:34N 34°20' E 128°33'61 7.6
2016-Feb-06 17:33N 33°29' E 127°54'13 6.5
2016-Feb-06 15:31N 33°17' E 127°47'6 5.9
2016-Feb-06 14:33N 33°12' E 127°43'6 6.1
2016-Feb-06 13:33N 33°06' E 127°40'6 6.0
2016-Feb-06 12:33N 33°01' E 127°38'6 5.9
2016-Feb-06 11:33N 32°55' E 127°35'6 6.2
2016-Feb-06 10:33N 32°50' E 127°31'  
2016-Feb-02 09:08N 22°17' E 114°06'6 0.3
2016-Feb-01 13:06N 22°21' E 114°02'510.0
2016-Feb-01 12:33N 22°17' E 114°06'12 9.8
2016-Feb-01 11:21N 22°08' E 114°15'1111.4
2016-Feb-01 10:25N 22°08' E 114°26'  
2016-Jan-29 05:31N 01°14' E 103°57'9 8.5
2016-Jan-29 04:28N 01°13' E 103°48'4 4.4
2016-Jan-29 03:33N 01°16' E 103°46'0 0.0
2016-Jan-29 02:33N 01°16' E 103°46'0 0.0
2016-Jan-29 01:33N 01°16' E 103°46'0 0.0
2016-Jan-29 00:33N 01°16' E 103°46'0 0.0
2016-Jan-28 23:33N 01°16' E 103°46'0 0.0
2016-Jan-28 22:33N 01°16' E 103°46'0 0.0
2016-Jan-28 21:33N 01°16' E 103°46'0 0.0
2016-Jan-28 20:33N 01°16' E 103°46'0 0.0
2016-Jan-28 19:33N 01°16' E 103°46'0 0.1
2016-Jan-28 18:33N 01°16' E 103°46'0 0.1
2016-Jan-28 17:33N 01°16' E 103°46'0 0.0
2016-Jan-28 16:33N 01°16' E 103°46'0 0.0
2016-Jan-28 15:33N 01°16' E 103°46'0 0.1
2016-Jan-28 14:33N 01°16' E 103°46'0 0.1
2016-Jan-28 13:33N 01°16' E 103°46'0 0.0
2016-Jan-28 12:33N 01°16' E 103°46'0 0.0
2016-Jan-28 09:33N 01°16' E 103°46'0 0.0
2016-Jan-28 08:33N 01°16' E 103°46'0 0.0
2016-Jan-28 07:33N 01°16' E 103°46'3 2.8
2016-Jan-28 06:33N 01°14' E 103°47'9 8.5
2016-Jan-28 05:33N 01°14' E 103°56'8 8.0
2016-Jan-28 04:33N 01°16' E 104°04'  

Dump ship's entire track history